Time;durP1;ratioP1;P1;durP2;ratioP2;P2;SDS_P1;SDS_P2;PMS_P1;PMS_P2;Temp;Humidity;BMP_temperature;BMP_pressure;BME280_temperature;BME280_humidity;BME280_pressure;Samples;Min_cycle;Max_cycle;Signal;HPM_P1;HPM_P2
2023/12/11 00:01:43;;;;;;;92.85;88.70;;;;;;;11.18;69.75;99885.25;5039064;28;20059;-71
2023/12/11 00:04:08;;;;;;;92.07;87.53;;;;;;;11.18;69.87;99893.34;5031176;28;20041;-72
2023/12/11 00:06:34;;;;;;;92.55;88.38;;;;;;;11.17;69.73;99890.94;5031112;28;20409;-71
2023/12/11 00:08:59;;;;;;;91.70;87.43;;;;;;;11.16;69.85;99892.00;5032415;28;20067;-72
2023/12/11 00:11:25;;;;;;;94.03;89.03;;;;;;;11.13;69.92;99885.22;5031449;28;20106;-70
2023/12/11 00:13:50;;;;;;;91.40;86.38;;;;;;;11.13;69.67;99874.41;5031782;28;20121;-70
2023/12/11 00:16:17;;;;;;;88.43;84.50;;;;;;;11.14;69.82;99883.38;5028262;28;20076;-72
2023/12/11 00:18:42;;;;;;;91.63;86.97;;;;;;;11.13;69.82;99887.13;5033566;28;20056;-71
2023/12/11 00:21:08;;;;;;;92.45;87.82;;;;;;;11.10;69.60;99883.06;5027269;28;20037;-72
2023/12/11 00:23:33;;;;;;;90.32;85.93;;;;;;;11.10;69.84;99883.06;5031536;28;20125;-71
2023/12/11 00:25:58;;;;;;;92.82;88.53;;;;;;;11.08;69.84;99879.81;5035172;28;20040;-71
2023/12/11 00:28:24;;;;;;;95.38;90.93;;;;;;;11.08;69.70;99876.31;5039239;28;20112;-71
2023/12/11 00:30:50;;;;;;;91.47;87.53;;;;;;;11.07;69.87;99875.50;5025573;28;20466;-71
2023/12/11 00:33:15;;;;;;;89.80;85.82;;;;;;;11.08;69.82;99873.59;5028763;28;20045;-72
2023/12/11 00:35:41;;;;;;;93.15;89.05;;;;;;;11.08;69.73;99870.91;5029753;28;20041;-72
2023/12/11 00:38:07;;;;;;;92.35;87.82;;;;;;;11.07;69.58;99869.28;5012981;28;20037;-73
2023/12/11 00:40:32;;;;;;;93.80;88.93;;;;;;;11.06;69.64;99873.84;5019169;28;20034;-72
2023/12/11 00:42:58;;;;;;;94.00;89.15;;;;;;;11.04;69.59;99876.03;5020767;28;20061;-72
2023/12/11 00:45:23;;;;;;;94.28;89.82;;;;;;;11.03;69.59;99867.09;5029565;28;20061;-72
2023/12/11 00:47:49;;;;;;;95.88;91.25;;;;;;;11.01;69.62;99863.88;5024235;28;20052;-71
2023/12/11 00:50:14;;;;;;;92.60;85.85;;;;;;;11.00;69.90;99856.84;5036726;28;20080;-74
2023/12/11 00:52:39;;;;;;;91.72;87.53;;;;;;;11.02;69.73;99851.97;5015049;28;20034;-72
2023/12/11 00:55:06;;;;;;;96.47;90.93;;;;;;;11.02;69.83;99859.28;5016065;28;20449;-72
2023/12/11 00:57:31;;;;;;;94.63;88.97;;;;;;;11.02;69.76;99851.97;5036356;28;20115;-72
2023/12/11 00:59:57;;;;;;;90.80;86.32;;;;;;;11.03;69.63;99850.06;5034496;28;20124;-71
2023/12/11 01:02:22;;;;;;;91.38;86.43;;;;;;;11.02;69.61;99849.28;5044964;28;20378;-72
2023/12/11 01:04:47;;;;;;;87.80;83.57;;;;;;;11.01;69.62;99836.84;5013783;28;20029;-72
2023/12/11 01:07:13;;;;;;;90.63;86.65;;;;;;;11.00;69.60;99847.91;5024900;28;20038;-72
2023/12/11 01:09:38;;;;;;;92.78;88.45;;;;;;;10.99;69.87;99849.81;5021766;28;20112;-70
2023/12/11 01:12:04;;;;;;;87.10;83.20;;;;;;;11.00;69.24;99850.63;5033274;28;20108;-71
2023/12/11 01:14:30;;;;;;;94.45;90.05;;;;;;;10.96;69.94;99849.53;5029948;28;20263;-71
2023/12/11 01:16:55;;;;;;;91.07;86.93;;;;;;;10.98;69.55;99841.97;5023832;28;20033;-72
2023/12/11 01:19:21;;;;;;;89.05;85.13;;;;;;;10.96;69.67;99836.84;5030459;28;20083;-71
2023/12/11 01:21:46;;;;;;;94.45;89.15;;;;;;;10.97;69.59;99832.25;5031264;28;20049;-72
2023/12/11 01:24:12;;;;;;;92.80;87.68;;;;;;;10.96;69.74;99836.84;5033761;28;20350;-73
2023/12/11 01:26:38;;;;;;;89.40;84.60;;;;;;;10.97;69.56;99827.66;5036334;28;20030;-73
2023/12/11 01:29:04;;;;;;;92.47;87.47;;;;;;;10.97;69.65;99826.84;5024585;28;20029;-72
2023/12/11 01:31:29;;;;;;;94.55;89.85;;;;;;;10.96;69.62;99826.03;5031403;28;20040;-72
2023/12/11 01:33:55;;;;;;;90.15;85.90;;;;;;;10.94;69.66;99817.38;5039910;28;20041;-70
2023/12/11 01:36:20;;;;;;;90.25;85.57;;;;;;;10.95;69.76;99815.47;5028510;28;20059;-71
2023/12/11 01:38:47;;;;;;;91.20;86.85;;;;;;;10.93;69.69;99814.94;5018967;28;20041;-71
2023/12/11 01:41:12;;;;;;;93.65;88.80;;;;;;;10.94;70.01;99821.97;5030095;28;20064;-72
2023/12/11 01:43:38;;;;;;;95.75;90.80;;;;;;;10.94;69.88;99809.28;5039014;28;20069;-72
2023/12/11 01:46:06;;;;;;;91.80;87.55;;;;;;;10.93;69.61;99810.34;5022165;28;20041;-72
2023/12/11 01:48:32;;;;;;;85.30;81.28;;;;;;;10.94;69.94;99803.06;5017602;28;20118;-71
2023/12/11 01:50:58;;;;;;;95.07;90.68;;;;;;;10.94;69.77;99806.56;5038466;28;20131;-72
2023/12/11 01:53:25;;;;;;;90.50;86.03;;;;;;;10.92;69.61;99794.41;5037281;28;20443;-72
2023/12/11 01:55:50;;;;;;;86.10;82.28;;;;;;;10.92;69.72;99789.81;5022338;28;20179;-71
2023/12/11 01:58:17;;;;;;;89.72;85.72;;;;;;;10.92;69.82;99789.00;5037748;28;20124;-71
2023/12/11 02:00:43;;;;;;;91.70;87.40;;;;;;;10.92;69.62;99783.59;5029903;28;20037;-72
2023/12/11 02:03:10;;;;;;;86.35;82.32;;;;;;;10.92;69.96;99779.00;5030262;28;20529;-71
2023/12/11 02:05:36;;;;;;;90.65;86.40;;;;;;;10.94;69.69;99776.03;5027179;28;20174;-73
2023/12/11 02:08:02;;;;;;;93.40;89.35;;;;;;;10.92;69.75;99776.31;5029105;28;20038;-72
2023/12/11 02:10:27;;;;;;;89.85;85.90;;;;;;;10.94;70.01;99776.03;5062141;28;20041;-73
2023/12/11 02:12:53;;;;;;;92.68;88.57;;;;;;;10.93;69.74;99774.41;5029856;28;20132;-72
2023/12/11 02:15:42;;;;;;;91.45;87.28;;;;;;;10.93;70.02;99779.81;5030588;28;20047;-72
2023/12/11 02:18:08;;;;;;;90.25;85.63;;;;;;;10.93;70.03;99771.69;5027572;28;20073;-72
2023/12/11 02:20:35;;;;;;;98.45;92.50;;;;;;;10.94;69.82;99786.84;5010961;28;20436;-72
2023/12/11 02:23:22;;;;;;;90.28;86.28;;;;;;;10.94;69.90;99778.75;5027991;28;20037;-71
2023/12/11 02:25:59;;;;;;;92.85;88.53;;;;;;;10.94;69.96;99763.34;5017204;28;20071;-72
2023/12/11 02:28:25;;;;;;;92.97;87.80;;;;;;;10.95;69.64;99756.03;5029821;28;20083;-71
2023/12/11 02:30:50;;;;;;;97.82;93.05;;;;;;;10.95;69.52;99756.03;5036571;28;20045;-72
2023/12/11 02:33:16;;;;;;;93.60;88.55;;;;;;;10.94;69.83;99744.44;5003410;28;20030;-71
2023/12/11 02:35:43;;;;;;;92.50;87.55;;;;;;;10.94;69.68;99755.22;5028597;28;20087;-71
2023/12/11 02:38:09;;;;;;;90.40;86.43;;;;;;;10.94;69.58;99744.44;5036572;28;20485;-72
2023/12/11 02:40:34;;;;;;;93.93;89.30;;;;;;;10.95;69.82;99747.94;5034486;28;20104;-73
2023/12/11 02:43:00;;;;;;;91.75;87.45;;;;;;;10.95;69.50;99737.94;5028780;28;20474;-72
2023/12/11 02:45:25;;;;;;;95.45;91.15;;;;;;;10.95;69.73;99724.41;5031461;28;20044;-71
2023/12/11 02:47:51;;;;;;;94.80;90.18;;;;;;;10.96;69.87;99719.81;5035268;28;20029;-71
2023/12/11 02:50:16;;;;;;;97.32;92.40;;;;;;;10.94;69.22;99728.22;5019793;28;20056;-73
2023/12/11 02:52:41;;;;;;;93.55;89.15;;;;;;;10.92;69.74;99718.75;5041791;28;20462;-72
2023/12/11 02:55:07;;;;;;;94.70;90.05;;;;;;;10.91;69.93;99726.06;5024615;28;20065;-71
2023/12/11 02:57:32;;;;;;;91.55;87.35;;;;;;;10.91;69.58;99722.53;5041386;28;20087;-72
2023/12/11 02:59:58;;;;;;;93.57;88.10;;;;;;;10.91;69.96;99727.94;5038739;28;20478;-71
2023/12/11 03:02:23;;;;;;;91.13;85.57;;;;;;;10.92;69.90;99710.66;5028346;28;20072;-72
2023/12/11 03:04:49;;;;;;;93.55;88.80;;;;;;;10.94;69.84;99711.19;5023036;28;20091;-72
2023/12/11 03:07:15;;;;;;;96.28;90.65;;;;;;;10.93;69.68;99704.97;5041087;28;20078;-71
2023/12/11 03:09:40;;;;;;;93.47;88.22;;;;;;;10.92;69.74;99706.06;5019703;28;20036;-72
2023/12/11 03:12:06;;;;;;;91.20;85.93;;;;;;;10.93;69.62;99701.44;5021642;28;20025;-72
2023/12/11 03:14:31;;;;;;;90.55;86.63;;;;;;;10.92;69.70;99703.34;5021010;28;20041;-71
2023/12/11 03:16:57;;;;;;;90.00;86.05;;;;;;;10.94;69.75;99705.78;5030508;28;20596;-72
2023/12/11 03:19:24;;;;;;;91.05;86.00;;;;;;;10.93;70.03;99688.75;5033347;28;20064;-72
2023/12/11 03:21:49;;;;;;;95.10;88.72;;;;;;;10.92;69.93;99689.84;5022398;28;20036;-72
2023/12/11 03:24:15;;;;;;;96.28;91.60;;;;;;;10.93;70.00;99701.44;5032156;28;20037;-71
2023/12/11 03:26:40;;;;;;;91.18;87.10;;;;;;;10.94;69.81;99697.69;5031317;28;20412;-72
2023/12/11 03:29:06;;;;;;;92.22;88.20;;;;;;;10.95;69.96;99685.78;5023457;28;20041;-72
2023/12/11 03:31:31;;;;;;;92.43;87.95;;;;;;;10.95;69.60;99678.50;5032160;28;20070;-72
2023/12/11 03:33:56;;;;;;;95.95;90.65;;;;;;;10.94;69.68;99692.28;5031838;28;20096;-73
2023/12/11 03:36:22;;;;;;;90.00;85.97;;;;;;;10.94;69.85;99689.59;5032044;28;20121;-72
2023/12/11 03:38:47;;;;;;;95.50;90.10;;;;;;;10.92;70.03;99687.13;5028536;28;20043;-73
2023/12/11 03:41:13;;;;;;;88.95;84.95;;;;;;;10.93;69.70;99691.44;5034538;28;20045;-74
2023/12/11 03:43:38;;;;;;;89.00;84.72;;;;;;;10.91;70.11;99687.41;5027671;28;20064;-73
2023/12/11 03:46:03;;;;;;;92.82;88.57;;;;;;;10.92;70.08;99697.16;5028434;28;20470;-73
2023/12/11 03:48:29;;;;;;;91.65;87.45;;;;;;;10.92;70.26;99687.13;5020486;28;20045;-72
2023/12/11 03:50:56;;;;;;;94.50;90.22;;;;;;;10.92;70.04;99700.66;5025763;28;20041;-73
2023/12/11 03:53:21;;;;;;;92.75;88.20;;;;;;;10.91;69.92;99684.69;5046251;28;20075;-71
2023/12/11 03:55:47;;;;;;;93.78;88.90;;;;;;;10.92;69.86;99702.53;5038079;28;20054;-72
2023/12/11 03:58:13;;;;;;;92.25;87.63;;;;;;;10.92;69.93;99689.84;5045911;28;20359;-73
2023/12/11 04:00:38;;;;;;;91.43;86.45;;;;;;;10.91;69.81;99680.13;5030959;28;20025;-72
2023/12/11 04:03:04;;;;;;;90.00;85.35;;;;;;;10.90;69.90;99693.91;5032066;28;20060;-72
2023/12/11 04:05:29;;;;;;;92.25;87.85;;;;;;;10.90;70.07;99680.38;5029831;28;20377;-71
2023/12/11 04:07:54;;;;;;;93.43;89.13;;;;;;;10.91;70.08;99685.53;5022264;28;20389;-71
2023/12/11 04:10:20;;;;;;;94.05;89.75;;;;;;;10.93;70.02;99682.53;5031056;28;20065;-73
2023/12/11 04:12:45;;;;;;;94.30;89.47;;;;;;;10.91;69.86;99684.69;5030415;28;20029;-71
2023/12/11 04:15:11;;;;;;;96.43;92.07;;;;;;;10.91;70.23;99677.44;5030099;28;20504;-73
2023/12/11 04:17:37;;;;;;;91.32;87.20;;;;;;;10.95;70.16;99672.28;5026391;28;20050;-72
2023/12/11 04:20:03;;;;;;;91.80;87.53;;;;;;;10.97;70.02;99675.53;5019023;28;20036;-72
2023/12/11 04:22:29;;;;;;;91.22;87.30;;;;;;;10.97;69.93;99670.94;5015131;28;20037;-73
2023/12/11 04:24:54;;;;;;;95.60;91.40;;;;;;;10.97;69.80;99659.31;5027563;28;20091;-75
2023/12/11 04:27:20;;;;;;;91.47;86.43;;;;;;;10.95;69.97;99670.38;5030992;28;20068;-72
2023/12/11 04:29:45;;;;;;;90.60;86.53;;;;;;;10.95;69.85;99667.69;5031307;28;20480;-75
2023/12/11 04:32:11;;;;;;;96.90;92.40;;;;;;;10.95;70.06;99664.19;5035798;28;20037;-73
2023/12/11 04:34:36;;;;;;;91.35;86.85;;;;;;;10.95;70.20;99664.19;5038516;28;20402;-73
2023/12/11 04:37:02;;;;;;;95.68;90.88;;;;;;;10.95;70.12;99664.19;5034739;28;20403;-72
2023/12/11 04:39:27;;;;;;;91.43;86.82;;;;;;;10.95;70.16;99659.56;4998913;28;20029;-72
2023/12/11 04:41:52;;;;;;;94.18;89.70;;;;;;;10.96;69.99;99666.63;5016784;28;20049;-73
2023/12/11 04:44:18;;;;;;;96.75;89.15;;;;;;;10.97;69.85;99665.53;5013148;28;20462;-73
2023/12/11 04:46:43;;;;;;;91.72;87.18;;;;;;;10.97;70.03;99668.22;5026675;28;20045;-71
2023/12/11 04:49:08;;;;;;;90.90;86.88;;;;;;;10.98;69.94;99677.13;5031324;28;20029;-71
2023/12/11 04:51:34;;;;;;;90.75;86.75;;;;;;;10.97;70.00;99675.53;5027781;28;20378;-72
2023/12/11 04:54:00;;;;;;;92.03;87.45;;;;;;;10.99;69.96;99681.47;5012434;28;20038;-71
2023/12/11 04:56:25;;;;;;;90.88;86.97;;;;;;;10.98;70.09;99675.25;5035015;28;20037;-73
2023/12/11 04:58:51;;;;;;;93.93;89.65;;;;;;;11.00;69.99;99656.88;5044805;28;20116;-73
2023/12/11 05:01:16;;;;;;;89.55;85.18;;;;;;;10.95;69.85;99664.97;5023014;28;20033;-72
2023/12/11 05:03:42;;;;;;;87.32;83.13;;;;;;;10.96;70.06;99657.69;5030630;28;20473;-72
2023/12/11 05:06:08;;;;;;;98.43;93.90;;;;;;;10.95;70.23;99656.88;5027045;28;20155;-73
2023/12/11 05:08:33;;;;;;;91.38;86.35;;;;;;;10.96;69.96;99672.03;5042854;28;20470;-72
2023/12/11 05:10:59;;;;;;;92.78;88.03;;;;;;;10.97;70.10;99657.41;5012394;28;20052;-71
2023/12/11 05:13:24;;;;;;;91.55;86.88;;;;;;;10.99;70.06;99673.38;5022994;28;20046;-72
2023/12/11 05:15:50;;;;;;;92.38;88.25;;;;;;;10.98;70.20;99669.84;5006482;28;20044;-73
2023/12/11 05:18:16;;;;;;;92.38;88.15;;;;;;;11.00;70.00;99664.97;5014022;28;20053;-72
2023/12/11 05:20:41;;;;;;;94.88;89.93;;;;;;;10.99;70.17;99670.66;5031914;28;20036;-73
2023/12/11 05:23:07;;;;;;;95.93;90.65;;;;;;;11.02;70.23;99659.31;5018126;28;20075;-70
2023/12/11 05:25:32;;;;;;;93.65;89.30;;;;;;;11.02;70.12;99662.81;5030611;28;20025;-72
2023/12/11 05:27:58;;;;;;;93.88;89.45;;;;;;;11.01;70.27;99653.09;5023094;28;20128;-73
2023/12/11 05:30:24;;;;;;;95.70;91.30;;;;;;;10.99;70.06;99659.84;5022355;28;20489;-72
2023/12/11 05:32:49;;;;;;;92.07;87.93;;;;;;;11.01;70.20;99663.06;5029963;28;20474;-71
2023/12/11 05:35:14;;;;;;;94.65;90.45;;;;;;;11.01;70.03;99663.91;5018281;28;20041;-72
2023/12/11 05:37:40;;;;;;;94.78;90.07;;;;;;;11.04;69.98;99652.56;5034668;28;20469;-72
2023/12/11 05:40:07;;;;;;;94.75;90.25;;;;;;;11.03;69.75;99648.22;5018912;28;20497;-72
2023/12/11 05:42:32;;;;;;;93.05;88.45;;;;;;;11.04;70.00;99647.16;5028660;28;20039;-72
2023/12/11 05:44:58;;;;;;;93.25;88.95;;;;;;;11.03;69.80;99653.63;5031225;28;20033;-73
2023/12/11 05:47:23;;;;;;;93.50;88.70;;;;;;;11.03;70.05;99663.63;5032605;28;20045;-71
2023/12/11 05:49:48;;;;;;;94.20;89.30;;;;;;;11.02;70.04;99662.00;4998632;28;20071;-73
2023/12/11 05:52:14;;;;;;;93.53;89.30;;;;;;;11.02;70.06;99656.59;5022917;28;20036;-72
2023/12/11 05:54:39;;;;;;;95.65;91.15;;;;;;;11.03;70.22;99650.09;5018869;28;20034;-72
2023/12/11 05:57:04;;;;;;;92.13;87.53;;;;;;;11.04;69.94;99657.16;5025653;28;20049;-73
2023/12/11 05:59:30;;;;;;;94.63;89.60;;;;;;;11.04;69.90;99654.44;5019039;28;20045;-72
2023/12/11 06:01:55;;;;;;;96.18;91.57;;;;;;;11.05;70.13;99664.16;5029777;28;20408;-72
2023/12/11 06:04:21;;;;;;;92.70;88.50;;;;;;;11.03;70.22;99659.03;5022490;28;20477;-71
2023/12/11 06:06:47;;;;;;;91.22;87.03;;;;;;;11.04;70.14;99660.66;5024719;28;20121;-72
2023/12/11 06:09:13;;;;;;;93.10;88.38;;;;;;;11.07;69.84;99666.59;5028120;28;20156;-73
2023/12/11 06:11:39;;;;;;;94.43;90.32;;;;;;;11.07;69.98;99653.91;5035406;28;20030;-71
2023/12/11 06:14:05;;;;;;;92.55;87.90;;;;;;;11.05;69.95;99656.06;5016156;28;20096;-72
2023/12/11 06:16:30;;;;;;;95.85;91.28;;;;;;;11.09;70.13;99659.00;5029918;28;20035;-72
2023/12/11 06:18:56;;;;;;;94.75;90.25;;;;;;;11.10;69.99;99660.66;5039468;28;20503;-73
2023/12/11 06:21:23;;;;;;;97.00;91.88;;;;;;;11.09;69.97;99643.63;5044955;28;20048;-72
2023/12/11 06:23:49;;;;;;;94.20;88.85;;;;;;;11.08;69.84;99655.50;5024077;28;20050;-71
2023/12/11 06:26:31;;;;;;;98.28;92.70;;;;;;;11.05;70.23;99664.16;5029616;28;20034;-72
2023/12/11 06:28:59;;;;;;;92.78;88.65;;;;;;;11.01;70.09;99672.00;5029276;28;20413;-72
2023/12/11 06:31:25;;;;;;;91.68;87.43;;;;;;;10.99;69.84;99660.66;5031007;28;20449;-72
2023/12/11 06:33:51;;;;;;;95.43;91.05;;;;;;;10.97;70.19;99673.63;5027327;28;20037;-72
2023/12/11 06:36:16;;;;;;;93.07;88.68;;;;;;;10.96;69.91;99669.31;5026739;28;20071;-71
2023/12/11 06:38:42;;;;;;;95.80;91.53;;;;;;;10.97;70.22;99667.41;5024070;28;20034;-72
2023/12/11 06:41:07;;;;;;;96.47;92.03;;;;;;;10.96;70.09;99674.72;5029486;28;20041;-71
2023/12/11 06:43:35;;;;;;;92.78;88.57;;;;;;;10.98;69.83;99679.84;5035208;28;20029;-72
2023/12/11 06:46:00;;;;;;;92.22;87.95;;;;;;;10.98;70.08;99679.84;5033451;28;20045;-71
2023/12/11 06:48:26;;;;;;;92.53;88.45;;;;;;;11.01;69.92;99685.53;5052496;28;20037;-72
2023/12/11 06:50:53;;;;;;;94.53;89.47;;;;;;;11.03;69.79;99688.75;5033070;28;20042;-74
2023/12/11 06:53:19;;;;;;;97.93;93.47;;;;;;;10.99;69.63;99684.19;5020941;28;20034;-72
2023/12/11 06:55:44;;;;;;;90.68;86.30;;;;;;;11.02;69.51;99691.72;5016431;28;20100;-72
2023/12/11 06:58:09;;;;;;;99.93;94.70;;;;;;;11.03;69.68;99688.75;5033538;28;20037;-73
2023/12/11 07:00:35;;;;;;;98.97;94.15;;;;;;;11.05;69.39;99693.88;5020603;28;20404;-72
2023/12/11 07:03:00;;;;;;;95.95;91.05;;;;;;;11.04;69.68;99694.97;5033140;28;20389;-72
2023/12/11 07:05:26;;;;;;;92.60;87.47;;;;;;;11.01;69.55;99692.78;5032696;28;20056;-72
2023/12/11 07:07:51;;;;;;;93.28;88.65;;;;;;;11.01;69.58;99703.59;5017318;28;20038;-73
2023/12/11 07:10:17;;;;;;;93.57;89.13;;;;;;;11.03;69.68;99717.66;5030078;28;20469;-73
2023/12/11 07:12:45;;;;;;;97.40;92.35;;;;;;;11.02;69.32;99724.97;5058859;28;20690;-73
2023/12/11 07:15:11;;;;;;;95.90;91.38;;;;;;;11.01;69.31;99719.81;5031180;28;20539;-71
2023/12/11 07:17:37;;;;;;;91.88;87.60;;;;;;;11.01;69.74;99731.47;5026548;28;20077;-71
2023/12/11 07:20:03;;;;;;;94.28;89.85;;;;;;;11.03;69.78;99736.59;5015155;28;20463;-72
2023/12/11 07:22:31;;;;;;;95.53;90.93;;;;;;;11.03;69.70;99731.97;5037421;28;20038;-71
2023/12/11 07:24:56;;;;;;;94.50;90.20;;;;;;;11.03;69.58;99745.50;5009431;28;20034;-72
2023/12/11 07:27:22;;;;;;;94.22;89.85;;;;;;;11.04;69.54;99747.13;5012426;28;20033;-72
2023/12/11 07:29:47;;;;;;;98.18;93.18;;;;;;;11.02;69.72;99753.88;5029538;28;20549;-72
2023/12/11 07:32:13;;;;;;;99.45;94.40;;;;;;;11.00;69.80;99754.16;5025613;28;20040;-73
2023/12/11 07:34:38;;;;;;;95.95;90.85;;;;;;;11.01;69.76;99744.13;5044530;28;20549;-72
2023/12/11 07:37:04;;;;;;;97.35;92.07;;;;;;;11.02;69.91;99762.78;5030096;28;20121;-73
2023/12/11 07:39:29;;;;;;;93.18;88.78;;;;;;;11.04;69.90;99776.06;5028252;28;20075;-73
2023/12/11 07:41:55;;;;;;;97.45;91.88;;;;;;;11.04;69.71;99779.56;5011403;28;20133;-72
2023/12/11 07:44:20;;;;;;;98.15;93.07;;;;;;;11.04;70.00;99787.66;5030174;28;20037;-72
2023/12/11 07:46:46;;;;;;;91.72;87.63;;;;;;;11.06;69.73;99781.97;5029155;28;20536;-74
2023/12/11 07:49:14;;;;;;;95.80;91.10;;;;;;;11.07;69.61;99774.69;5025652;28;20071;-72
2023/12/11 07:51:39;;;;;;;95.68;90.75;;;;;;;11.04;69.71;99800.38;5029113;28;20469;-72
2023/12/11 07:54:05;;;;;;;95.43;90.53;;;;;;;11.05;69.94;99791.19;5028113;28;20540;-72
2023/12/11 07:56:30;;;;;;;95.20;90.70;;;;;;;11.04;69.89;99790.38;5028594;28;20072;-70
2023/12/11 07:58:56;;;;;;;93.53;89.22;;;;;;;11.03;69.84;99793.31;5029940;28;20052;-73
2023/12/11 08:01:21;;;;;;;97.38;92.72;;;;;;;11.01;69.94;99792.78;5028027;28;20389;-71
2023/12/11 08:03:47;;;;;;;96.25;91.85;;;;;;;11.01;70.06;99792.78;5013112;28;20034;-72
2023/12/11 08:06:12;;;;;;;97.40;92.70;;;;;;;11.03;69.66;99798.72;5029304;28;20120;-74
2023/12/11 08:08:45;;;;;;;93.90;89.75;;;;;;;11.02;69.81;99799.81;5028142;28;20073;-72
2023/12/11 08:11:15;;;;;;;96.78;92.28;;;;;;;11.03;69.66;99810.34;5026274;28;20123;-72
2023/12/11 08:13:41;;;;;;;94.22;89.78;;;;;;;11.03;69.71;99804.94;5028654;28;20042;-71
2023/12/11 08:16:07;;;;;;;95.95;91.63;;;;;;;11.04;69.66;99808.47;5031604;28;20056;-72
2023/12/11 08:18:33;;;;;;;93.45;89.03;;;;;;;11.02;69.41;99816.84;5028461;28;20052;-73
2023/12/11 08:20:59;;;;;;;93.78;87.72;;;;;;;11.02;69.89;99819.53;5025464;28;21363;-72
2023/12/11 08:23:24;;;;;;;96.15;91.05;;;;;;;11.03;69.57;99829.25;5026948;28;20657;-71
2023/12/11 08:25:50;;;;;;;92.57;87.80;;;;;;;11.05;69.60;99834.41;5026254;28;20144;-71
2023/12/11 08:28:15;;;;;;;94.60;90.28;;;;;;;11.04;69.30;99839.00;5023694;28;20565;-73
2023/12/11 08:30:40;;;;;;;93.75;89.63;;;;;;;11.06;69.23;99849.53;5027732;28;20553;-73
2023/12/11 08:33:06;;;;;;;97.88;92.82;;;;;;;11.08;69.67;99863.59;5024137;28;20040;-74
2023/12/11 08:35:31;;;;;;;96.68;92.10;;;;;;;11.10;69.66;99855.25;5025900;28;20045;-73
2023/12/11 08:37:57;;;;;;;93.80;89.38;;;;;;;11.11;69.71;99878.47;5027947;28;20056;-73
2023/12/11 08:40:23;;;;;;;96.60;92.13;;;;;;;11.09;69.60;99886.88;5026027;28;20132;-73
2023/12/11 08:42:49;;;;;;;96.07;91.72;;;;;;;11.07;69.48;99880.09;5026331;28;20033;-73
2023/12/11 08:45:14;;;;;;;95.95;91.03;;;;;;;11.05;69.63;99883.06;5025948;28;20385;-71
2023/12/11 08:47:41;;;;;;;94.88;90.57;;;;;;;11.05;69.46;99893.88;5024832;28;20038;-72
2023/12/11 08:50:08;;;;;;;90.82;86.85;;;;;;;11.05;69.67;99910.88;5026870;28;20041;-75
2023/12/11 08:52:34;;;;;;;92.90;88.75;;;;;;;11.08;69.43;99914.94;5028174;28;20044;-72
2023/12/11 08:55:00;;;;;;;93.15;88.95;;;;;;;11.10;69.34;99937.13;5031133;28;20397;-72
2023/12/11 08:57:25;;;;;;;100.70;95.55;;;;;;;11.08;69.70;99950.09;5024680;28;20406;-72
2023/12/11 08:59:51;;;;;;;94.07;89.85;;;;;;;11.06;69.75;99954.94;5030418;28;20029;-72
2023/12/11 09:02:16;;;;;;;94.95;90.70;;;;;;;11.06;69.69;99960.34;5030949;28;20372;-71
2023/12/11 09:04:42;;;;;;;94.05;89.88;;;;;;;11.04;69.77;99944.41;5025325;28;20037;-71
2023/12/11 09:07:09;;;;;;;91.65;87.63;;;;;;;11.05;69.53;99951.44;5025166;28;20062;-72
2023/12/11 09:09:35;;;;;;;94.20;89.70;;;;;;;11.07;69.80;99961.19;5027059;28;20569;-71
2023/12/11 09:12:01;;;;;;;93.43;89.18;;;;;;;11.04;69.87;99949.81;5027044;28;20045;-73
2023/12/11 09:14:26;;;;;;;94.38;89.97;;;;;;;11.04;69.68;99954.41;5030154;28;20033;-71
2023/12/11 09:16:52;;;;;;;91.72;87.65;;;;;;;11.02;70.04;99951.97;5024875;28;20037;-73
2023/12/11 09:19:17;;;;;;;93.20;88.50;;;;;;;11.03;69.86;99958.19;5027655;28;20056;-71
2023/12/11 09:21:43;;;;;;;95.60;90.55;;;;;;;11.04;69.66;99973.34;4992689;28;20054;-71
2023/12/11 09:24:09;;;;;;;91.78;87.68;;;;;;;11.05;69.89;99977.66;5028359;28;20700;-71
2023/12/11 09:26:35;;;;;;;94.50;89.72;;;;;;;11.06;69.63;99984.66;5011384;28;20040;-71
2023/12/11 09:29:00;;;;;;;95.13;90.80;;;;;;;11.05;69.83;99983.84;5023378;28;20030;-72
2023/12/11 09:31:26;;;;;;;96.88;92.03;;;;;;;11.06;69.95;100000.88;5026784;28;20033;-71
2023/12/11 09:33:51;;;;;;;92.30;87.55;;;;;;;11.07;69.63;100001.72;5025116;28;20041;-71
2023/12/11 09:36:18;;;;;;;92.68;88.25;;;;;;;11.08;69.61;100009.53;5027620;28;20095;-72
2023/12/11 09:38:43;;;;;;;93.32;89.30;;;;;;;11.08;69.82;100016.84;5030272;28;20440;-72
2023/12/11 09:41:09;;;;;;;92.43;88.00;;;;;;;11.08;69.84;100004.13;5025803;28;20034;-72
2023/12/11 09:43:36;;;;;;;92.38;87.97;;;;;;;11.08;69.67;100008.72;5025394;28;20484;-70
2023/12/11 09:46:06;;;;;;;94.50;89.78;;;;;;;11.07;69.76;100026.84;5026586;28;20045;-71
2023/12/11 09:48:31;;;;;;;96.03;91.63;;;;;;;11.07;69.85;100042.25;5025754;28;20071;-72
2023/12/11 09:50:57;;;;;;;93.22;88.97;;;;;;;11.08;69.67;100041.16;5027575;28;20049;-72
2023/12/11 09:53:24;;;;;;;97.75;93.15;;;;;;;11.08;70.03;100039.28;5025625;28;20044;-73
2023/12/11 09:55:50;;;;;;;89.45;85.30;;;;;;;11.09;69.99;100051.72;5022711;28;20093;-71
2023/12/11 09:58:16;;;;;;;96.05;91.70;;;;;;;11.10;69.91;100053.34;5024153;28;20463;-71
2023/12/11 10:00:42;;;;;;;93.72;89.40;;;;;;;11.11;69.75;100054.97;5026273;28;20034;-70
2023/12/11 10:03:08;;;;;;;94.80;90.05;;;;;;;11.10;70.15;100064.16;5023977;28;20452;-72
2023/12/11 10:05:35;;;;;;;92.80;88.30;;;;;;;11.11;69.91;100070.38;5027036;28;20037;-72
2023/12/11 10:08:01;;;;;;;87.90;83.55;;;;;;;11.09;69.87;100084.16;5022906;28;20041;-71
2023/12/11 10:10:31;;;;;;;92.85;87.68;;;;;;;11.09;69.84;100073.34;5020125;28;22212;-72
2023/12/11 10:12:58;;;;;;;92.60;88.40;;;;;;;11.09;69.97;100081.47;5026633;28;20099;-71
2023/12/11 10:15:34;;;;;;;98.95;93.75;;;;;;;11.10;69.89;100087.66;5026392;28;20069;-71
2023/12/11 10:18:08;;;;;;;92.95;88.72;;;;;;;11.09;69.83;100102.25;5025151;28;20036;-72
2023/12/11 10:20:35;;;;;;;96.45;91.80;;;;;;;11.07;69.88;100089.00;5025783;28;20036;-71
2023/12/11 10:23:18;;;;;;;90.53;86.32;;;;;;;11.08;70.21;100089.81;5025105;28;20053;-72
2023/12/11 10:26:03;;;;;;;90.80;86.72;;;;;;;11.09;70.05;100104.94;5023677;28;20029;-71
2023/12/11 10:28:29;;;;;;;98.82;94.15;;;;;;;11.10;69.91;100099.28;5019523;28;20053;-71
2023/12/11 10:30:58;;;;;;;94.97;90.55;;;;;;;11.12;69.94;100104.44;5009865;28;20045;-71
2023/12/11 10:33:26;;;;;;;94.97;90.68;;;;;;;11.14;69.96;100099.59;5026665;28;20025;-71
2023/12/11 10:35:53;;;;;;;98.45;93.95;;;;;;;11.16;70.08;100108.22;5026262;28;20038;-71
2023/12/11 10:38:25;;;;;;;93.13;89.03;;;;;;;11.15;70.01;100115.53;5021289;28;20034;-72
2023/12/11 10:40:52;;;;;;;91.93;87.55;;;;;;;11.16;70.03;100119.03;5028090;28;20044;-72
2023/12/11 10:43:18;;;;;;;93.75;89.50;;;;;;;11.16;69.68;100119.88;5024947;28;20397;-73
2023/12/11 10:45:45;;;;;;;93.30;88.70;;;;;;;11.18;69.79;100117.72;5023448;28;20029;-72
2023/12/11 10:48:11;;;;;;;95.00;90.65;;;;;;;11.21;69.98;100130.72;5020880;28;20088;-71
2023/12/11 10:50:36;;;;;;;98.30;93.55;;;;;;;11.23;69.73;100128.56;5025930;28;20601;-72
2023/12/11 10:53:03;;;;;;;92.22;87.82;;;;;;;11.25;69.73;100139.13;5025392;28;20041;-70
2023/12/11 10:55:32;;;;;;;94.38;90.18;;;;;;;11.23;69.82;100136.66;5023649;28;20099;-71
2023/12/11 10:58:00;;;;;;;98.18;93.65;;;;;;;11.24;69.67;100143.72;5020985;28;20113;-71
2023/12/11 11:00:27;;;;;;;95.90;91.50;;;;;;;11.24;69.56;100142.91;5021598;28;20033;-71
2023/12/11 11:02:55;;;;;;;93.55;89.47;;;;;;;11.25;69.94;100147.22;5024982;28;20037;-71
2023/12/11 11:05:22;;;;;;;94.77;90.47;;;;;;;11.26;69.96;100155.09;5029135;28;20363;-72
2023/12/11 11:08:01;;;;;;;96.82;92.03;;;;;;;11.29;69.72;100155.63;5023112;28;20288;-69
2023/12/11 11:10:34;;;;;;;95.25;90.55;;;;;;;11.30;69.62;100162.66;5021983;28;20029;-71
2023/12/11 11:13:08;;;;;;;94.75;90.47;;;;;;;11.30;69.52;100163.47;5024681;28;20414;-72